Time;durP1;ratioP1;P1;durP2;ratioP2;P2;SDS_P1;SDS_P2;PMS_P1;PMS_P2;Temp;Humidity;BMP_temperature;BMP_pressure;BME280_temperature;BME280_humidity;BME280_pressure;Samples;Min_cycle;Max_cycle;Signal;HPM_P1;HPM_P2
2022/09/21 00:00:26;;;;;;;17.08;9.93;;;;;;;3.65;100.00;102491.56;2080188;28;20046;-78
2022/09/21 00:01:30;;;;;;;13.85;7.78;;;;;;;3.67;100.00;102489.88;2080093;28;26643;-78
2022/09/21 00:02:33;;;;;;;13.95;9.32;;;;;;;3.64;100.00;102489.75;2080821;28;20111;-78
2022/09/21 00:03:37;;;;;;;14.18;8.50;;;;;;;3.66;100.00;102489.81;2080100;28;28103;-78
2022/09/21 00:04:39;;;;;;;10.88;7.03;;;;;;;3.66;100.00;102490.75;2079404;28;33399;-78
2022/09/21 00:05:41;;;;;;;10.60;7.38;;;;;;;3.63;100.00;102491.53;2079865;28;36902;-79
2022/09/21 00:06:42;;;;;;;14.45;9.15;;;;;;;3.59;100.00;102486.09;2079690;28;28481;-79
2022/09/21 00:07:44;;;;;;;10.30;7.43;;;;;;;3.59;100.00;102491.41;2079693;28;39621;-79
2022/09/21 00:08:47;;;;;;;13.73;8.73;;;;;;;3.55;100.00;102490.41;2079756;28;35034;-78
2022/09/21 00:09:49;;;;;;;10.32;7.68;;;;;;;3.55;100.00;102500.06;2079799;28;33174;-79
2022/09/21 00:10:50;;;;;;;10.20;6.20;;;;;;;3.54;100.00;102487.72;2079529;28;40125;-79
2022/09/21 00:11:53;;;;;;;12.90;8.05;;;;;;;3.50;100.00;102497.31;2078750;28;30678;-79
2022/09/21 00:13:03;;;;;;;11.30;7.82;;;;;;;3.49;100.00;102495.50;2079427;28;32400;-76
2022/09/21 00:14:12;;;;;;;11.38;7.22;;;;;;;3.49;100.00;102499.91;2080124;28;29261;-79
2022/09/21 00:15:16;;;;;;;9.27;6.82;;;;;;;3.48;100.00;102491.03;2080036;28;32567;-79
2022/09/21 00:16:18;;;;;;;11.27;6.97;;;;;;;3.48;100.00;102498.09;2078778;28;37816;-79
2022/09/21 00:17:23;;;;;;;10.27;7.30;;;;;;;3.46;100.00;102491.84;2079740;28;20060;-79
2022/09/21 00:18:25;;;;;;;11.98;6.65;;;;;;;3.48;100.00;102495.44;2079825;28;35034;-78
2022/09/21 00:19:27;;;;;;;11.80;6.97;;;;;;;3.46;100.00;102491.84;2079583;28;32268;-78
2022/09/21 00:20:31;;;;;;;17.77;7.82;;;;;;;3.40;100.00;102489.91;2079537;28;38379;-78
2022/09/21 00:21:33;;;;;;;11.25;6.70;;;;;;;3.40;100.00;102489.91;2079399;28;37498;-78
2022/09/21 00:22:38;;;;;;;12.70;7.88;;;;;;;3.33;100.00;102491.47;2079714;28;35036;-78
2022/09/21 00:23:43;;;;;;;13.48;7.97;;;;;;;3.32;100.00;102486.13;2079495;28;37542;-78
2022/09/21 00:24:45;;;;;;;16.58;8.40;;;;;;;3.31;100.00;102490.50;2079968;28;32317;-76
2022/09/21 00:25:49;;;;;;;12.15;8.27;;;;;;;3.30;100.00;102490.47;2080162;28;20049;-78
2022/09/21 00:26:50;;;;;;;13.40;7.65;;;;;;;3.32;100.00;102491.41;2079570;28;31953;-78
2022/09/21 00:27:53;;;;;;;9.98;7.00;;;;;;;3.31;100.00;102490.50;2080056;28;20037;-78
2022/09/21 00:28:59;;;;;;;12.68;7.75;;;;;;;3.31;100.00;102489.63;2079488;28;34433;-79
2022/09/21 00:30:05;;;;;;;9.73;6.88;;;;;;;3.29;100.00;102492.22;2079628;28;36161;-78
2022/09/21 00:31:11;;;;;;;10.32;6.43;;;;;;;3.24;100.00;102494.69;2079733;28;30912;-78
2022/09/21 00:32:14;;;;;;;12.30;7.95;;;;;;;3.21;100.00;102489.34;2079376;28;38734;-78
2022/09/21 00:33:16;;;;;;;12.68;7.65;;;;;;;3.19;100.00;102492.75;2079454;28;29912;-79
2022/09/21 00:34:17;;;;;;;13.10;7.32;;;;;;;3.19;100.00;102493.66;2078975;28;32167;-78
2022/09/21 00:35:21;;;;;;;10.82;7.45;;;;;;;3.18;100.00;102494.53;2079208;28;40009;-78
2022/09/21 00:36:24;;;;;;;9.27;6.65;;;;;;;3.17;100.00;102491.81;2079819;28;23302;-78
2022/09/21 00:37:29;;;;;;;10.10;6.78;;;;;;;3.16;100.00;102492.66;2078870;28;33742;-78
2022/09/21 00:38:34;;;;;;;8.80;6.47;;;;;;;3.16;100.00;102487.38;2079263;28;31763;-78
2022/09/21 00:39:38;;;;;;;11.13;6.88;;;;;;;3.14;100.00;102492.63;2079149;28;37805;-78
2022/09/21 00:40:40;;;;;;;12.80;7.35;;;;;;;3.13;100.00;102495.22;2079696;28;37513;-78
2022/09/21 00:41:42;;;;;;;9.63;6.32;;;;;;;3.15;100.00;102496.16;2079557;28;30695;-78
2022/09/21 00:42:49;;;;;;;9.90;6.88;;;;;;;3.13;100.00;102496.13;2079503;28;39330;-78
2022/09/21 00:44:17;;;;;;;11.27;7.38;;;;;;;3.11;100.00;102489.88;2079546;28;32968;-78
2022/09/21 00:45:21;;;;;;;15.40;7.65;;;;;;;3.09;100.00;102488.94;2078938;28;35071;-78
2022/09/21 00:46:28;;;;;;;11.55;7.53;;;;;;;3.10;100.00;102500.41;2079301;28;35800;-78
2022/09/21 00:47:44;;;;;;;13.70;7.68;;;;;;;3.09;100.00;102485.38;2079557;28;32776;-78
2022/09/21 00:48:46;;;;;;;10.98;7.13;;;;;;;3.10;100.00;102490.72;2079244;28;34879;-78
2022/09/21 00:49:54;;;;;;;13.13;7.47;;;;;;;3.12;100.00;102496.94;2079905;28;37121;-78
2022/09/21 00:51:03;;;;;;;11.45;8.05;;;;;;;3.11;100.00;102497.81;2078672;28;32119;-78
2022/09/21 00:52:06;;;;;;;12.68;6.82;;;;;;;3.11;100.00;102495.16;2080842;28;31844;-78
2022/09/21 00:53:08;;;;;;;16.85;7.53;;;;;;;3.09;100.00;102494.22;2079156;28;33691;-78
2022/09/21 00:54:23;;;;;;;9.20;6.68;;;;;;;3.08;100.00;102488.88;2078796;28;34628;-78
2022/09/21 00:55:33;;;;;;;12.57;7.50;;;;;;;3.03;100.00;102494.94;2079083;28;36265;-77
2022/09/21 00:56:36;;;;;;;12.00;6.90;;;;;;;3.04;100.00;102498.47;2079170;28;34409;-78
2022/09/21 00:57:38;;;;;;;13.70;8.23;;;;;;;3.09;100.00;102496.88;2078545;28;36657;-78
2022/09/21 00:58:47;;;;;;;11.57;7.65;;;;;;;3.13;100.00;102489.94;2078917;28;37353;-78
2022/09/21 00:59:56;;;;;;;13.20;8.00;;;;;;;3.13;100.00;102490.81;2079141;28;31146;-78
2022/09/21 01:00:59;;;;;;;10.02;6.90;;;;;;;3.14;100.00;102492.63;2080488;28;38509;-78
2022/09/21 01:02:03;;;;;;;12.85;7.90;;;;;;;3.11;100.00;102497.81;2085970;28;39909;-77
2022/09/21 01:03:08;;;;;;;13.82;7.65;;;;;;;3.11;100.00;102494.28;2079300;28;35888;-77
2022/09/21 01:04:12;;;;;;;10.80;7.68;;;;;;;3.08;100.00;102499.47;2078876;28;34268;-78
2022/09/21 01:05:14;;;;;;;14.05;7.80;;;;;;;3.05;100.00;102497.59;2079795;28;36419;-78
2022/09/21 01:06:20;;;;;;;12.98;7.70;;;;;;;3.04;100.00;102495.81;2079420;28;20038;-77
2022/09/21 01:07:28;;;;;;;12.48;7.22;;;;;;;3.04;100.00;102501.09;2079715;28;32812;-78
2022/09/21 01:08:32;;;;;;;11.55;6.45;;;;;;;3.01;100.00;102501.88;2085758;28;31826;-78
2022/09/21 01:09:34;;;;;;;14.50;7.88;;;;;;;2.98;100.00;102496.53;2079143;28;36289;-77
2022/09/21 01:10:46;;;;;;;10.30;6.88;;;;;;;2.99;100.00;102500.06;2079529;28;32292;-78
2022/09/21 01:12:08;;;;;;;12.02;7.63;;;;;;;2.92;100.00;102504.22;2080172;28;20046;-78
2022/09/21 01:13:32;;;;;;;12.52;8.43;;;;;;;2.88;100.00;102498.81;2080444;28;20042;-77
2022/09/21 01:15:15;;;;;;;10.23;7.13;;;;;;;2.86;100.00;102499.63;2079606;28;33832;-77
2022/09/21 01:16:35;;;;;;;11.45;6.80;;;;;;;2.87;100.00;102497.88;2078904;28;36100;-77
2022/09/21 01:17:59;;;;;;;12.48;6.47;;;;;;;2.90;100.00;102505.03;2086421;28;37649;-78
2022/09/21 01:19:44;;;;;;;10.88;7.88;;;;;;;2.88;100.00;102496.16;2082494;28;40153;-77
2022/09/21 01:21:15;;;;;;;13.45;7.95;;;;;;;2.86;100.00;102497.00;2080064;28;21517;-77
2022/09/21 01:22:59;;;;;;;11.73;7.38;;;;;;;2.84;100.00;102500.44;2080069;28;20057;-76
2022/09/21 01:24:33;;;;;;;11.98;8.00;;;;;;;2.86;100.00;102501.38;2078464;28;41173;-77
2022/09/21 01:26:04;;;;;;;11.15;7.65;;;;;;;2.88;100.00;102501.44;2086599;28;21562;-77
2022/09/21 01:27:44;;;;;;;11.98;6.68;;;;;;;2.86;100.00;102506.69;2079885;28;41810;-77
2022/09/21 01:29:24;;;;;;;8.77;6.25;;;;;;;2.81;100.00;102503.88;2079804;28;32008;-77
2022/09/21 01:30:25;;;;;;;13.10;7.55;;;;;;;2.81;100.00;102508.25;2079326;28;42227;-77
2022/09/21 01:31:38;;;;;;;15.80;8.05;;;;;;;2.84;100.00;102503.09;2078757;28;33612;-77
2022/09/21 01:32:54;;;;;;;12.45;6.30;;;;;;;2.84;100.00;102503.09;2080663;28;34776;-77
2022/09/21 01:34:04;;;;;;;15.38;7.93;;;;;;;2.81;100.00;102508.25;2079415;28;20037;-78
2022/09/21 01:35:17;;;;;;;;;;;;;;;2.79;100.00;102510.84;2073732;28;37389;-77
2022/09/21 01:36:27;;;;;;;14.52;7.25;;;;;;;2.81;100.00;102513.56;2079185;28;31813;-77
2022/09/21 01:38:02;;;;;;;10.05;7.05;;;;;;;2.73;100.00;102510.66;2078746;28;38549;-78
2022/09/21 01:39:13;;;;;;;13.32;7.85;;;;;;;2.72;100.00;102513.25;2080072;28;20926;-77
2022/09/21 01:40:29;;;;;;;13.88;7.75;;;;;;;2.70;100.00;102510.53;2078547;28;40051;-77
2022/09/21 01:41:39;;;;;;;12.90;7.38;;;;;;;2.69;100.00;102514.00;2082961;28;20045;-78
2022/09/21 01:42:44;;;;;;;15.38;8.50;;;;;;;2.66;100.00;102513.94;2085315;28;25192;-77
2022/09/21 01:43:54;;;;;;;14.32;6.38;;;;;;;2.67;100.00;102511.34;2078558;28;38787;-78
2022/09/21 01:45:02;;;;;;;;;;;;;;;2.64;100.00;102508.59;2081920;28;20041;-76
2022/09/21 01:46:12;;;;;;;15.55;7.25;;;;;;;2.66;100.00;102508.66;2086521;28;31838;-78
2022/09/21 01:47:18;;;;;;;12.90;7.07;;;;;;;2.65;100.00;102515.66;2081109;28;20105;-78
2022/09/21 01:48:23;;;;;;;9.98;7.30;;;;;;;2.64;100.00;102515.63;2081637;28;40831;-77
2022/09/21 01:49:33;;;;;;;9.38;6.47;;;;;;;2.65;100.00;102518.28;2086899;28;36731;-78
2022/09/21 01:50:43;;;;;;;9.48;6.32;;;;;;;2.63;100.00;102514.69;2080077;28;30743;-75
2022/09/21 01:51:57;;;;;;;11.95;7.15;;;;;;;2.59;100.00;102511.91;2082871;28;31823;-76
2022/09/21 01:53:18;;;;;;;14.30;7.72;;;;;;;2.54;100.00;102509.09;2080471;28;29628;-75
2022/09/21 01:54:28;;;;;;;13.85;7.88;;;;;;;2.53;100.00;102503.75;2084096;28;34884;-77
2022/09/21 01:55:41;;;;;;;12.68;7.55;;;;;;;2.52;100.00;102500.22;2086037;28;34663;-76
2022/09/21 01:57:07;;;;;;;12.52;7.45;;;;;;;2.53;100.00;102507.31;2079857;28;40036;-77
2022/09/21 01:58:23;;;;;;;12.30;7.22;;;;;;;2.54;100.00;102510.84;2084346;28;32592;-76
2022/09/21 01:59:42;;;;;;;14.35;7.55;;;;;;;2.51;100.00;102508.97;2083527;28;20046;-77
2022/09/21 02:00:47;;;;;;;13.02;8.07;;;;;;;2.52;100.00;102512.53;2080244;28;36858;-76
2022/09/21 02:02:06;;;;;;;14.35;8.93;;;;;;;2.51;100.00;102514.25;2080239;28;41736;-76
2022/09/21 02:03:42;;;;;;;14.65;7.57;;;;;;;2.50;100.00;102512.50;2080874;28;21330;-76
2022/09/21 02:04:44;;;;;;;13.23;6.80;;;;;;;2.51;100.00;102508.97;2080119;28;40219;-79
2022/09/21 02:05:46;;;;;;;14.73;8.30;;;;;;;2.55;100.00;102510.91;2080751;28;20700;-79
2022/09/21 02:06:50;;;;;;;15.80;7.43;;;;;;;2.56;100.00;102512.69;2080347;28;34703;-79
2022/09/21 02:07:57;;;;;;;13.63;7.00;;;;;;;2.52;100.00;102513.44;2080620;28;40210;-79
2022/09/21 02:08:59;;;;;;;12.63;7.47;;;;;;;2.47;100.00;102507.97;2080778;28;20875;-79
2022/09/21 02:10:03;;;;;;;10.70;6.57;;;;;;;2.41;100.00;102509.53;2072313;28;32844;-78
2022/09/21 02:11:06;;;;;;;12.90;7.57;;;;;;;2.35;100.00;102512.84;2072838;28;20895;-77
2022/09/21 02:12:10;;;;;;;13.00;7.45;;;;;;;2.36;100.00;102511.09;2063812;28;35759;-77
2022/09/21 02:13:19;;;;;;;17.25;8.57;;;;;;;2.43;100.00;102511.34;2072949;28;31218;-79
2022/09/21 02:14:24;;;;;;;15.93;8.80;;;;;;;2.48;100.00;102516.81;2079996;28;39294;-79
2022/09/21 02:15:44;;;;;;;16.05;7.80;;;;;;;2.47;100.00;102512.38;2072854;28;32442;-79
2022/09/21 02:17:16;;;;;;;15.30;8.65;;;;;;;2.45;100.00;102514.94;2074884;28;37114;-79
2022/09/21 02:18:39;;;;;;;16.05;8.27;;;;;;;2.46;100.00;102510.59;2077300;28;39109;-79
2022/09/21 02:20:18;;;;;;;15.65;7.75;;;;;;;2.47;100.00;102513.25;2080354;28;31280;-79
2022/09/21 02:21:30;;;;;;;14.23;7.38;;;;;;;2.44;100.00;102512.25;2080433;28;40767;-79
2022/09/21 02:22:48;;;;;;;12.80;6.93;;;;;;;2.45;100.00;102514.06;2080169;28;37931;-79
2022/09/21 02:24:16;;;;;;;18.65;9.02;;;;;;;2.45;100.00;102508.78;2080403;28;37191;-78
2022/09/21 02:26:05;;;;;;;19.38;9.20;;;;;;;2.49;100.00;102513.31;2080494;28;33039;-78
2022/09/21 02:27:54;;;;;;;14.32;8.35;;;;;;;2.50;100.00;102511.59;2072401;28;20105;-79
2022/09/21 02:29:18;;;;;;;19.02;8.63;;;;;;;2.57;100.00;102508.31;2071222;28;36726;-79
2022/09/21 02:30:24;;;;;;;17.58;9.60;;;;;;;2.55;100.00;102508.25;2063052;28;36223;-78
2022/09/21 02:31:31;;;;;;;16.23;8.20;;;;;;;2.57;100.00;102509.22;2057749;28;40029;-79
2022/09/21 02:32:49;;;;;;;16.95;9.95;;;;;;;2.54;100.00;102510.84;2069225;28;39339;-79
2022/09/21 02:34:08;;;;;;;13.45;7.38;;;;;;;2.50;100.00;102515.13;2079904;28;30819;-79
2022/09/21 02:35:30;;;;;;;12.60;7.68;;;;;;;2.44;100.00;102509.59;2079895;28;36156;-79
2022/09/21 02:36:55;;;;;;;15.20;7.65;;;;;;;2.39;100.00;102504.19;2080327;28;32622;-80
2022/09/21 02:38:33;;;;;;;14.43;8.30;;;;;;;2.35;100.00;102511.91;2079793;28;37712;-78
2022/09/21 02:40:08;;;;;;;12.13;6.95;;;;;;;2.29;100.00;102502.94;2080244;28;40367;-79
2022/09/21 02:41:23;;;;;;;16.98;8.20;;;;;;;2.28;100.00;102505.53;2080384;28;29116;-79
2022/09/21 02:42:32;;;;;;;14.02;7.28;;;;;;;2.28;100.00;102511.72;2080131;28;35894;-78
2022/09/21 02:43:59;;;;;;;12.85;7.28;;;;;;;2.26;100.00;102508.13;2079772;28;34981;-79
2022/09/21 02:45:27;;;;;;;12.43;6.38;;;;;;;2.25;100.00;102502.78;2079958;28;31368;-79
2022/09/21 02:46:40;;;;;;;15.20;7.15;;;;;;;2.24;100.00;102512.44;2079929;28;34161;-80
2022/09/21 02:48:04;;;;;;;14.20;7.13;;;;;;;2.24;100.00;102515.09;2084268;28;40588;-78
2022/09/21 02:49:16;;;;;;;11.27;7.00;;;;;;;2.25;100.00;102511.59;2079464;28;31972;-79
2022/09/21 02:50:28;;;;;;;13.88;7.90;;;;;;;2.26;100.00;102513.41;2083341;28;32635;-79
2022/09/21 02:51:36;;;;;;;13.35;8.10;;;;;;;2.29;100.00;102508.22;2079664;28;20030;-80
2022/09/21 02:52:41;;;;;;;13.70;7.88;;;;;;;2.33;100.00;102508.34;2080585;28;42136;-79
2022/09/21 02:53:45;;;;;;;16.88;8.27;;;;;;;2.32;100.00;102506.56;2078931;28;39173;-80
2022/09/21 02:54:51;;;;;;;15.98;8.43;;;;;;;2.29;100.00;102508.22;2079936;28;34850;-79
2022/09/21 02:55:57;;;;;;;13.32;7.57;;;;;;;2.27;100.00;102506.38;2079933;28;29281;-79
2022/09/21 02:57:01;;;;;;;14.32;7.70;;;;;;;2.25;100.00;102508.94;2079995;28;35648;-79
2022/09/21 02:58:09;;;;;;;17.73;8.07;;;;;;;2.20;100.00;102510.53;2086773;28;36896;-80
2022/09/21 02:59:11;;;;;;;14.80;7.93;;;;;;;2.18;100.00;102508.69;2080212;28;33779;-78
2022/09/21 03:00:16;;;;;;;19.23;8.95;;;;;;;2.18;100.00;102509.56;2071282;28;29720;-79
2022/09/21 03:01:19;;;;;;;17.10;8.45;;;;;;;2.18;100.00;102509.56;2064762;28;32358;-79
2022/09/21 03:02:23;;;;;;;15.88;7.38;;;;;;;2.16;100.00;102519.19;2079577;28;41665;-79
2022/09/21 03:03:25;;;;;;;15.23;6.95;;;;;;;2.16;100.00;102510.38;2080124;28;33317;-79
2022/09/21 03:04:27;;;;;;;13.02;8.23;;;;;;;2.13;100.00;102511.13;2080070;28;38013;-79
2022/09/21 03:05:29;;;;;;;18.25;8.48;;;;;;;2.11;100.00;102510.19;2078769;28;36164;-80
2022/09/21 03:06:30;;;;;;;18.33;9.23;;;;;;;2.09;100.00;102510.13;2079915;28;39670;-79
2022/09/21 03:07:33;;;;;;;16.92;9.15;;;;;;;2.09;100.00;102512.75;2087387;28;32792;-78
2022/09/21 03:08:35;;;;;;;15.70;8.20;;;;;;;2.07;100.00;102510.91;2080301;28;36197;-78
2022/09/21 03:09:36;;;;;;;19.10;8.80;;;;;;;2.08;100.00;102510.06;2079565;28;38570;-78
2022/09/21 03:10:39;;;;;;;14.38;8.43;;;;;;;2.05;100.00;102504.69;2081162;28;20041;-80
2022/09/21 03:11:43;;;;;;;18.50;9.15;;;;;;;2.13;100.00;102512.88;2079718;28;40585;-78
2022/09/21 03:12:45;;;;;;;16.30;8.95;;;;;;;2.14;100.00;102523.53;2080044;28;34550;-78
2022/09/21 03:13:51;;;;;;;17.77;8.40;;;;;;;2.14;100.00;102512.06;2079845;28;33651;-78
2022/09/21 03:14:52;;;;;;;16.40;8.32;;;;;;;2.13;100.00;102515.53;2080054;28;33735;-78
2022/09/21 03:16:04;;;;;;;19.48;7.90;;;;;;;2.09;100.00;102519.81;2088032;28;20046;-80
2022/09/21 03:17:06;;;;;;;15.60;7.32;;;;;;;2.08;100.00;102516.28;2086756;28;30622;-78
2022/09/21 03:18:10;;;;;;;14.57;7.93;;;;;;;2.07;100.00;102524.13;2080247;28;39917;-79
2022/09/21 03:19:11;;;;;;;14.10;7.80;;;;;;;2.05;100.00;102528.47;2079929;28;36664;-79
2022/09/21 03:20:14;;;;;;;14.60;8.05;;;;;;;2.02;100.00;102523.06;2080298;28;20041;-78
2022/09/21 03:21:16;;;;;;;13.85;8.10;;;;;;;2.00;100.00;102524.75;2080166;28;25485;-79
2022/09/21 03:22:20;;;;;;;17.30;8.45;;;;;;;1.97;100.00;102519.34;2080350;28;20049;-80
2022/09/21 03:23:22;;;;;;;12.95;6.80;;;;;;;1.98;100.00;102521.16;2080159;28;32677;-80
2022/09/21 03:25:47;;;;;;;16.38;8.40;;;;;;;1.94;100.00;102522.78;2079953;28;37551;-78
2022/09/21 03:26:49;;;;;;;13.05;8.02;;;;;;;1.93;100.00;102522.72;2079581;28;31061;-80
2022/09/21 03:27:52;;;;;;;17.25;9.27;;;;;;;1.94;100.00;102525.41;2080207;28;31643;-80
2022/09/21 03:28:54;;;;;;;15.45;8.88;;;;;;;1.94;100.00;102529.78;2087286;28;31145;-80
2022/09/21 03:29:56;;;;;;;14.02;8.57;;;;;;;1.95;100.00;102521.03;2079225;28;37053;-78
2022/09/21 03:31:02;;;;;;;17.27;9.60;;;;;;;1.98;100.00;102534.34;2080383;28;30167;-78
2022/09/21 03:32:04;;;;;;;16.40;9.52;;;;;;;2.03;100.00;102524.88;2086876;28;29781;-78
2022/09/21 03:33:09;;;;;;;17.00;9.45;;;;;;;2.03;100.00;102532.78;2079882;28;36464;-80
2022/09/21 03:34:10;;;;;;;20.35;10.23;;;;;;;2.03;100.00;102531.03;2079731;28;36456;-78
2022/09/21 03:35:12;;;;;;;18.77;9.75;;;;;;;2.05;100.00;102523.19;2079438;28;38258;-78
2022/09/21 03:36:14;;;;;;;16.42;10.35;;;;;;;2.08;100.00;102525.91;2080252;28;30772;-78
2022/09/21 03:37:18;;;;;;;17.67;10.35;;;;;;;2.09;100.00;102525.97;2080693;28;20054;-78
2022/09/21 03:38:22;;;;;;;20.90;9.88;;;;;;;2.08;100.00;102528.56;2080161;28;20038;-78
2022/09/21 03:39:23;;;;;;;16.20;9.15;;;;;;;2.06;100.00;102530.25;2079683;28;37497;-79
2022/09/21 03:40:26;;;;;;;18.25;9.52;;;;;;;2.02;100.00;102528.34;2080276;28;40730;-80
2022/09/21 03:41:28;;;;;;;15.35;10.23;;;;;;;1.98;100.00;102531.72;2080544;28;20045;-78
2022/09/21 03:42:29;;;;;;;16.27;9.38;;;;;;;1.97;100.00;102533.44;2080120;28;36710;-78
2022/09/21 03:43:36;;;;;;;18.00;10.13;;;;;;;1.96;100.00;102533.41;2079897;28;37092;-80
2022/09/21 03:44:38;;;;;;;22.63;11.07;;;;;;;1.94;100.00;102532.41;2080452;28;32129;-78
2022/09/21 03:45:42;;;;;;;20.23;9.85;;;;;;;1.93;100.00;102526.25;2079763;28;39154;-78
2022/09/21 03:46:43;;;;;;;18.00;10.52;;;;;;;1.96;100.00;102533.41;2079439;28;39552;-78
2022/09/21 03:47:46;;;;;;;20.83;9.98;;;;;;;1.95;100.00;102529.84;2080117;28;30968;-79
2022/09/21 03:48:48;;;;;;;19.02;9.75;;;;;;;1.95;100.00;102537.75;2079714;28;33702;-78
2022/09/21 03:49:49;;;;;;;17.27;11.10;;;;;;;1.95;100.00;102532.47;2080475;28;20052;-78
2022/09/21 03:50:51;;;;;;;24.63;11.15;;;;;;;1.98;100.00;102529.06;2079540;28;34706;-78
2022/09/21 03:51:53;;;;;;;24.17;11.13;;;;;;;2.00;100.00;102537.94;2079843;28;31987;-80
2022/09/21 03:52:56;;;;;;;18.00;9.65;;;;;;;1.99;100.00;102530.84;2079771;28;36020;-78
2022/09/21 03:54:00;;;;;;;18.67;9.13;;;;;;;1.99;100.00;102533.50;2079605;28;34650;-80
2022/09/21 03:55:05;;;;;;;23.35;10.43;;;;;;;1.99;100.00;102531.78;2080305;28;20038;-80
2022/09/21 03:56:07;;;;;;;25.05;12.63;;;;;;;2.07;100.00;102524.13;2078778;28;39238;-79
2022/09/21 03:57:08;;;;;;;23.35;12.55;;;;;;;2.11;100.00;102526.03;2079101;28;36193;-79
2022/09/21 03:58:10;;;;;;;24.92;12.70;;;;;;;2.18;100.00;102529.81;2080057;28;29065;-81
2022/09/21 03:59:11;;;;;;;37.55;14.35;;;;;;;2.22;100.00;102531.72;2079563;28;33710;-80
2022/09/21 04:00:16;;;;;;;25.75;13.10;;;;;;;2.19;100.00;102543.09;2080034;28;31301;-81
2022/09/21 04:01:18;;;;;;;22.85;10.57;;;;;;;2.16;100.00;102537.69;2079798;28;24754;-80
2022/09/21 04:02:19;;;;;;;22.65;10.80;;;;;;;2.10;100.00;102530.44;2078814;28;35843;-79
2022/09/21 04:03:21;;;;;;;19.75;12.38;;;;;;;2.05;100.00;102524.06;2080999;28;20180;-80
2022/09/21 04:04:23;;;;;;;22.80;10.10;;;;;;;2.03;100.00;102538.06;2079750;28;30964;-80
2022/09/21 04:05:25;;;;;;;18.65;9.93;;;;;;;2.00;100.00;102541.47;2079598;28;36549;-79
2022/09/21 04:06:26;;;;;;;28.77;11.85;;;;;;;1.99;100.00;102538.78;2079969;28;29176;-79
2022/09/21 04:07:34;;;;;;;26.02;11.45;;;;;;;2.02;100.00;102538.91;2079608;28;40008;-79
2022/09/21 04:08:37;;;;;;;22.80;12.07;;;;;;;2.05;100.00;102533.75;2080093;28;32857;-79
2022/09/21 04:09:38;;;;;;;22.70;12.68;;;;;;;2.07;100.00;102524.13;2079573;28;32837;-79
2022/09/21 04:10:41;;;;;;;25.05;12.23;;;;;;;2.08;100.00;102528.56;2079829;28;35069;-79
2022/09/21 04:11:47;;;;;;;18.20;11.05;;;;;;;2.10;100.00;102540.09;2079707;28;28816;-80
2022/09/21 04:12:48;;;;;;;21.02;12.23;;;;;;;2.11;100.00;102531.31;2079552;28;33007;-79
2022/09/21 04:13:55;;;;;;;25.70;11.95;;;;;;;2.10;100.00;102522.50;2086968;28;39737;-80
2022/09/21 04:14:57;;;;;;;24.65;11.38;;;;;;;2.09;100.00;102539.19;2079767;28;20292;-80
2022/09/21 04:16:02;;;;;;;24.42;10.20;;;;;;;2.06;100.00;102535.53;2079269;28;36207;-80
2022/09/21 04:17:04;;;;;;;17.63;9.93;;;;;;;2.02;100.00;102533.63;2079793;28;26815;-79
2022/09/21 04:18:06;;;;;;;17.75;9.55;;;;;;;2.00;100.00;102536.19;2079547;28;32283;-79
2022/09/21 04:19:10;;;;;;;21.55;11.50;;;;;;;1.98;100.00;102535.25;2079578;28;32807;-79
2022/09/21 04:20:12;;;;;;;22.73;11.88;;;;;;;1.98;100.00;102537.00;2079873;28;28194;-80
2022/09/21 04:21:14;;;;;;;23.98;12.00;;;;;;;2.01;100.00;102534.44;2079431;28;40047;-79
2022/09/21 04:22:17;;;;;;;18.60;11.80;;;;;;;2.00;100.00;102530.91;2079709;28;34196;-79
2022/09/21 04:23:19;;;;;;;20.65;12.25;;;;;;;2.04;100.00;102531.94;2079660;28;34856;-80
2022/09/21 04:24:22;;;;;;;22.35;12.13;;;;;;;2.03;100.00;102530.16;2080121;28;24235;-79
2022/09/21 04:25:24;;;;;;;19.30;11.48;;;;;;;2.03;100.00;102528.41;2079867;28;31290;-80
2022/09/21 04:26:32;;;;;;;19.00;10.10;;;;;;;2.00;100.00;102530.91;2079586;28;38184;-79
2022/09/21 04:27:34;;;;;;;25.48;11.38;;;;;;;1.98;100.00;102535.25;2079713;28;36863;-79
2022/09/21 04:28:36;;;;;;;21.27;11.27;;;;;;;1.96;100.00;102536.03;2079619;28;29969;-78
2022/09/21 04:29:38;;;;;;;15.45;9.50;;;;;;;1.93;100.00;102538.56;2079177;28;39622;-79
2022/09/21 04:30:39;;;;;;;19.17;10.68;;;;;;;1.88;100.00;102536.66;2079811;28;28235;-79
2022/09/21 04:31:41;;;;;;;15.77;9.80;;;;;;;1.85;100.00;102536.53;2079102;28;37153;-78
2022/09/21 04:32:45;;;;;;;15.95;9.48;;;;;;;1.83;100.00;102538.22;2086552;28;37220;-80
2022/09/21 04:33:49;;;;;;;15.10;9.70;;;;;;;1.77;100.00;102540.59;2079395;28;39753;-79
2022/09/21 04:34:51;;;;;;;15.85;9.77;;;;;;;1.75;100.00;102531.72;2079814;28;24063;-80
2022/09/21 04:35:56;;;;;;;15.90;10.73;;;;;;;1.72;100.00;102534.22;2079127;28;37937;-80
2022/09/21 04:36:58;;;;;;;15.02;9.30;;;;;;;1.72;100.00;102539.50;2079442;28;29335;-80
2022/09/21 04:37:59;;;;;;;16.70;10.27;;;;;;;1.69;100.00;102542.06;2080039;28;30398;-79
2022/09/21 04:39:02;;;;;;;17.10;10.18;;;;;;;1.73;100.00;102541.31;2079404;28;37596;-79
2022/09/21 04:40:05;;;;;;;19.60;11.75;;;;;;;1.78;100.00;102533.59;2079308;28;35372;-79
2022/09/21 04:41:07;;;;;;;23.20;12.20;;;;;;;1.84;100.00;102545.28;2080355;28;20251;-79
2022/09/21 04:42:09;;;;;;;28.63;11.63;;;;;;;1.85;100.00;102540.91;2079510;28;33105;-80
2022/09/21 04:43:11;;;;;;;22.67;11.40;;;;;;;1.86;100.00;102538.31;2080281;28;20122;-79
2022/09/21 04:44:13;;;;;;;32.28;12.85;;;;;;;1.86;100.00;102537.41;2079243;28;39492;-79
2022/09/21 04:45:14;;;;;;;37.25;14.02;;;;;;;1.93;100.00;102541.19;2079265;28;37926;-79
2022/09/21 04:46:19;;;;;;;29.08;13.10;;;;;;;1.96;100.00;102538.69;2079718;28;31191;-79
2022/09/21 04:47:24;;;;;;;37.92;14.30;;;;;;;1.94;100.00;102540.34;2079654;28;39269;-79
2022/09/21 04:48:25;;;;;;;37.97;13.00;;;;;;;1.93;100.00;102538.56;2079836;28;28751;-79
2022/09/21 04:49:27;;;;;;;21.45;10.40;;;;;;;1.90;100.00;102537.59;2079037;28;38230;-79
2022/09/21 04:50:29;;;;;;;28.15;10.57;;;;;;;1.87;100.00;102540.13;2078060;28;37417;-80
2022/09/21 04:51:36;;;;;;;30.23;11.52;;;;;;;1.83;100.00;102538.22;2079081;28;20168;-79
2022/09/21 04:52:38;;;;;;;21.58;12.02;;;;;;;1.82;100.00;102540.78;2079481;28;38768;-79
2022/09/21 04:53:42;;;;;;;23.00;10.80;;;;;;;1.79;100.00;102535.38;2079353;28;40192;-79
2022/09/21 04:54:45;;;;;;;32.60;12.00;;;;;;;1.80;100.00;102540.72;2079629;28;26544;-78
2022/09/21 04:55:49;;;;;;;26.65;10.73;;;;;;;1.79;100.00;102538.91;2079158;28;34255;-80
2022/09/21 04:56:51;;;;;;;65.88;14.10;;;;;;;1.74;100.00;102536.94;2079432;28;36561;-79
2022/09/21 04:57:53;;;;;;;37.78;11.45;;;;;;;1.74;100.00;102545.75;2079607;28;32623;-79
2022/09/21 04:58:55;;;;;;;68.85;12.05;;;;;;;1.74;100.00;102550.13;2079508;28;39945;-79
2022/09/21 04:59:56;;;;;;;49.78;13.15;;;;;;;1.72;100.00;102550.06;2079327;28;30926;-79
2022/09/21 05:00:58;;;;;;;38.83;10.88;;;;;;;1.74;100.00;102548.38;2080025;28;20891;-79
2022/09/21 05:02:00;;;;;;;61.47;13.73;;;;;;;1.73;100.00;102543.97;2079412;28;36057;-79
2022/09/21 05:03:02;;;;;;;43.88;13.00;;;;;;;1.75;100.00;102549.31;2079556;28;36139;-79
2022/09/21 05:04:04;;;;;;;40.15;12.80;;;;;;;1.74;100.00;102543.09;2079101;28;41471;-79
2022/09/21 05:05:06;;;;;;;66.72;15.52;;;;;;;1.76;100.00;102553.72;2080465;28;20105;-79
2022/09/21 05:06:12;;;;;;;42.10;12.45;;;;;;;1.76;100.00;102552.00;2079209;28;28517;-80
2022/09/21 05:07:13;;;;;;;28.23;10.95;;;;;;;1.76;100.00;102546.72;2079548;28;34292;-79
2022/09/21 05:08:16;;;;;;;35.92;12.23;;;;;;;1.75;100.00;102550.19;2079507;28;34041;-79
2022/09/21 05:10:38;;;;;;;30.63;9.68;;;;;;;1.77;100.00;102555.53;2079357;28;35797;-79
2022/09/21 05:11:40;;;;;;;35.05;11.40;;;;;;;1.78;100.00;102549.44;2079595;28;34309;-80
2022/09/21 05:12:42;;;;;;;43.67;11.63;;;;;;;1.82;100.00;102557.53;2080156;28;20034;-79
2022/09/21 05:13:45;;;;;;;23.65;11.40;;;;;;;1.84;100.00;102547.91;2079074;28;32819;-79